Current | Forecast
Updated: 6:00 AM MSK on March 29, 2017
Observed at Krasnodar, Russia
Temperature 46°F
Windchill 38°F
Humidity 66%
Dew Point 36°F
Wind SW at 22 mph
Pressure 30.06 in (Rising)
Conditions Mostly Cloudy
Visibility 6.2 miles
UV 0 out of 16
Clouds Mostly Cloudy (BKN) : 3900 ft
Yesterday's Maximum 54°F
Yesterday's Minimum 36°F approx.
Yesterday's Heating Degree Days 20 approx.
Sunrise6:09 AM MSK
Sunset6:47 PM MSK
Moon Rise7:06 AM MSK
Moon Set8:26 PM MSK
Moon PhaseMoon Phase
New Moon
Raw METARMETAR URKK 290300Z 23010MPS 9999 BKN039 08/02 Q1018 R23C/290050 NOSIG RMK QFE760


Monday
. High: 71° F.
Tuesday
. High: 60° F.
Wednesday
. High: 64° F.
Thursday
. High: 64° F.
Friday
. High: 68° F.
Saturday
. High: 66° F.
Sunday
. High: 68° F.
Monday
. High: 68° F.

Units: English | Metric

Find the Weather for any City, State or Zipcode, or Country:

U.S. State List | Severe Weather | Tropical Storms | Ski Conditions
United States | Canada | Central America | South America | Asia | Europe | Australia | Africa | Islands

Weather Underground

© Copyright 2017
The Weather Company, LLC